createdAt,value
2016-11-29T00:00:06.152Z,0
2016-11-29T00:01:14.729Z,0
2016-11-29T00:02:23.307Z,0
2016-11-29T00:03:32.259Z,0
2016-11-29T00:04:40.825Z,0
2016-11-29T00:05:50.038Z,0
2016-11-29T00:06:58.946Z,0
2016-11-29T00:08:08.495Z,0
2016-11-29T00:09:17.747Z,0
2016-11-29T00:10:27.288Z,0
2016-11-29T00:11:36.186Z,0
2016-11-29T00:12:45.101Z,0
2016-11-29T00:13:54.330Z,0
2016-11-29T00:15:03.422Z,0
2016-11-29T00:16:12.639Z,0
2016-11-29T00:17:21.547Z,0
2016-11-29T00:18:30.771Z,0
2016-11-29T00:19:39.659Z,0
2016-11-29T00:20:48.607Z,0
2016-11-29T00:21:57.170Z,0
2016-11-29T00:23:05.764Z,0
2016-11-29T00:24:14.658Z,0
2016-11-29T00:25:23.541Z,0
2016-11-29T00:26:32.454Z,0
2016-11-29T00:27:41.026Z,0
2016-11-29T00:28:49.604Z,0
2016-11-29T00:29:58.182Z,0
2016-11-29T00:31:06.759Z,0
2016-11-29T00:32:15.700Z,0
2016-11-29T00:33:24.598Z,0
2016-11-29T00:34:33.191Z,0
2016-11-29T00:35:42.099Z,0
2016-11-29T00:36:50.668Z,0
2016-11-29T00:38:00.169Z,0
2016-11-29T00:39:09.069Z,0
2016-11-29T00:40:17.651Z,0
2016-11-29T00:41:26.873Z,0
2016-11-29T00:42:35.765Z,0
2016-11-29T00:43:44.690Z,0
2016-11-29T00:44:53.902Z,0
2016-11-29T00:46:03.134Z,0
2016-11-29T00:47:12.348Z,0
2016-11-29T00:48:20.925Z,0
2016-11-29T00:49:30.178Z,0
2016-11-29T00:50:39.102Z,0
2016-11-29T00:51:48.008Z,0
2016-11-29T00:52:56.585Z,0
2016-11-29T00:54:05.467Z,0
2016-11-29T00:55:14.086Z,0
2016-11-29T00:56:23.303Z,0
2016-11-29T00:57:32.192Z,0
2016-11-29T00:58:41.079Z,0
2016-11-29T00:59:50.604Z,0
2016-11-29T01:00:59.905Z,0
2016-11-29T01:02:08.475Z,0
2016-11-29T01:03:17.053Z,0
2016-11-29T01:04:25.624Z,0
2016-11-29T01:05:34.182Z,0
2016-11-29T01:06:43.112Z,0
2016-11-29T01:07:52.316Z,0
2016-11-29T01:09:01.235Z,0
2016-11-29T01:10:10.461Z,0
2016-11-29T01:11:19.355Z,0
2016-11-29T01:12:28.984Z,0
2016-11-29T01:13:37.563Z,0
2016-11-29T01:14:46.465Z,0
2016-11-29T01:15:55.053Z,0
2016-11-29T01:17:03.638Z,0
2016-11-29T01:18:13.197Z,0
2016-11-29T01:19:21.761Z,0
2016-11-29T01:20:30.363Z,0
2016-11-29T01:21:39.593Z,0
2016-11-29T01:22:48.490Z,0
2016-11-29T01:23:57.848Z,0
2016-11-29T01:25:06.752Z,0
2016-11-29T01:26:15.366Z,0
2016-11-29T01:27:23.939Z,0
2016-11-29T01:28:32.513Z,0
2016-11-29T01:29:41.468Z,0
2016-11-29T01:30:50.376Z,0
2016-11-29T01:31:59.279Z,0
2016-11-29T01:33:07.848Z,0
2016-11-29T01:34:16.737Z,0
2016-11-29T01:35:25.770Z,0
2016-11-29T01:36:34.344Z,0
2016-11-29T01:37:42.925Z,0
2016-11-29T01:38:51.822Z,0
2016-11-29T01:40:00.734Z,0
2016-11-29T01:41:09.358Z,0
2016-11-29T01:42:17.943Z,0
2016-11-29T01:43:26.841Z,0
2016-11-29T01:44:35.734Z,0
2016-11-29T01:45:44.617Z,0
2016-11-29T01:46:53.275Z,0
2016-11-29T01:48:01.852Z,0
2016-11-29T01:49:10.439Z,0
2016-11-29T01:50:19.005Z,0
2016-11-29T01:51:27.574Z,0
2016-11-29T01:52:36.587Z,0
2016-11-29T01:53:45.802Z,0
2016-11-29T01:54:54.681Z,0
2016-11-29T01:56:03.898Z,0
2016-11-29T01:57:12.475Z,0
2016-11-29T01:58:21.780Z,0
2016-11-29T01:59:30.360Z,0
2016-11-29T02:00:39.591Z,0
2016-11-29T02:01:48.180Z,0
2016-11-29T02:02:57.070Z,0
2016-11-29T02:04:06.014Z,0
2016-11-29T02:05:14.913Z,0
2016-11-29T02:06:23.497Z,0
2016-11-29T02:07:32.087Z,0
2016-11-29T02:08:40.667Z,0
2016-11-29T02:09:49.582Z,0
2016-11-29T02:10:58.485Z,0
2016-11-29T02:12:07.055Z,0
2016-11-29T02:13:16.261Z,0
2016-11-29T02:14:25.169Z,0
2016-11-29T02:15:34.408Z,0
2016-11-29T02:16:43.303Z,0
2016-11-29T02:17:52.524Z,0
2016-11-29T02:19:01.403Z,0
2016-11-29T02:20:09.991Z,0
2016-11-29T02:21:19.249Z,0
2016-11-29T02:22:27.815Z,0
2016-11-29T02:23:36.403Z,0
2016-11-29T02:24:51.253Z,0
2016-11-29T02:25:59.827Z,0
2016-11-29T02:27:09.056Z,0
2016-11-29T02:28:17.633Z,0
2016-11-29T02:29:26.208Z,0
2016-11-29T02:30:34.786Z,0
2016-11-29T02:31:43.363Z,0
2016-11-29T02:32:52.308Z,0
2016-11-29T02:34:00.879Z,0
2016-11-29T02:35:10.089Z,0
2016-11-29T02:36:19.005Z,0
2016-11-29T02:37:27.594Z,0
2016-11-29T02:38:36.537Z,0
2016-11-29T02:39:45.447Z,0
2016-11-29T02:40:54.024Z,0
2016-11-29T02:42:02.611Z,0
2016-11-29T02:43:11.169Z,0
2016-11-29T02:44:20.423Z,0
2016-11-29T02:45:28.989Z,0
2016-11-29T02:46:37.568Z,0
2016-11-29T02:47:46.784Z,0
2016-11-29T02:48:55.671Z,0
2016-11-29T02:50:04.615Z,0
2016-11-29T02:51:13.519Z,0
2016-11-29T02:52:22.101Z,0
2016-11-29T02:53:30.681Z,0
2016-11-29T02:54:39.594Z,0
2016-11-29T02:55:48.541Z,0
2016-11-29T02:56:57.118Z,0
2016-11-29T02:58:05.691Z,0
2016-11-29T02:59:14.259Z,0
2016-11-29T03:00:23.141Z,0
2016-11-29T03:01:32.267Z,0
2016-11-29T03:02:41.148Z,0
2016-11-29T03:03:49.721Z,0
2016-11-29T03:04:58.942Z,0
2016-11-29T03:06:07.541Z,0
2016-11-29T03:07:16.789Z,0
2016-11-29T03:08:25.362Z,0
2016-11-29T03:09:34.244Z,0
2016-11-29T03:10:43.129Z,0
2016-11-29T03:11:52.031Z,0
2016-11-29T03:13:00.647Z,0
2016-11-29T03:14:09.238Z,0
2016-11-29T03:15:18.135Z,0
2016-11-29T03:16:27.009Z,0
2016-11-29T03:17:35.894Z,0
2016-11-29T03:18:45.127Z,0
2016-11-29T03:19:54.036Z,0
2016-11-29T03:21:02.943Z,0
2016-11-29T03:22:11.842Z,0
2016-11-29T03:23:20.421Z,0
2016-11-29T03:24:29.035Z,0
2016-11-29T03:25:37.622Z,0
2016-11-29T03:26:46.524Z,0
2016-11-29T03:27:55.414Z,0
2016-11-29T03:29:04.313Z,0
2016-11-29T03:30:13.932Z,0
2016-11-29T03:31:22.831Z,0
2016-11-29T03:32:31.397Z,0
2016-11-29T03:33:40.943Z,0
2016-11-29T03:34:50.177Z,0
2016-11-29T03:35:59.494Z,0
2016-11-29T03:37:09.020Z,0
2016-11-29T03:38:17.641Z,0
2016-11-29T03:39:26.234Z,0
2016-11-29T03:40:34.801Z,0
2016-11-29T03:41:44.073Z,0
2016-11-29T03:42:52.960Z,0
2016-11-29T03:44:01.860Z,0
2016-11-29T03:45:10.756Z,0
2016-11-29T03:46:19.321Z,0
2016-11-29T03:47:27.956Z,0
2016-11-29T03:48:37.174Z,0
2016-11-29T03:49:45.761Z,0
2016-11-29T03:50:54.345Z,0
2016-11-29T03:52:03.572Z,0
2016-11-29T03:53:13.540Z,0
2016-11-29T03:54:22.096Z,0
2016-11-29T03:55:30.678Z,0
2016-11-29T03:56:39.266Z,0
2016-11-29T03:57:47.853Z,0
2016-11-29T03:58:57.116Z,0
2016-11-29T04:00:06.001Z,0
2016-11-29T04:01:14.898Z,0
2016-11-29T04:02:23.477Z,0
2016-11-29T04:03:32.699Z,0
2016-11-29T04:04:41.923Z,0
2016-11-29T04:05:50.505Z,0
2016-11-29T04:06:59.401Z,0
2016-11-29T04:08:07.970Z,0
2016-11-29T04:09:16.537Z,0
2016-11-29T04:10:25.452Z,0
2016-11-29T04:11:34.022Z,0
2016-11-29T04:12:42.919Z,0
2016-11-29T04:13:51.484Z,0
2016-11-29T04:15:00.388Z,0
2016-11-29T04:16:09.319Z,0
2016-11-29T04:17:17.898Z,0
2016-11-29T04:18:26.469Z,0
2016-11-29T04:19:35.360Z,0
2016-11-29T04:20:44.258Z,0
2016-11-29T04:21:53.836Z,0
2016-11-29T04:23:02.720Z,0
2016-11-29T04:24:11.310Z,0
2016-11-29T04:25:20.523Z,0
2016-11-29T04:26:29.424Z,0
2016-11-29T04:27:38.089Z,0
2016-11-29T04:28:47.003Z,0
2016-11-29T04:29:56.225Z,0
2016-11-29T04:31:05.139Z,0
2016-11-29T04:32:13.707Z,0
2016-11-29T04:33:22.637Z,0
2016-11-29T04:34:31.201Z,0
2016-11-29T04:35:39.790Z,0
2016-11-29T04:36:48.676Z,0
2016-11-29T04:37:57.562Z,0
2016-11-29T04:39:06.858Z,0
2016-11-29T04:40:16.069Z,0
2016-11-29T04:41:24.955Z,0
2016-11-29T04:42:33.852Z,0
2016-11-29T04:43:42.750Z,0
2016-11-29T04:44:51.698Z,0
2016-11-29T04:46:00.588Z,0
2016-11-29T04:47:09.493Z,0
2016-11-29T04:48:18.392Z,0
2016-11-29T04:49:26.967Z,0
2016-11-29T04:50:35.893Z,0
2016-11-29T04:51:44.786Z,0
2016-11-29T04:52:53.680Z,0
2016-11-29T04:54:02.578Z,0
2016-11-29T04:55:11.499Z,0
2016-11-29T04:56:20.486Z,0
2016-11-29T04:57:29.069Z,0
2016-11-29T04:58:37.968Z,0
2016-11-29T04:59:46.879Z,0
2016-11-29T05:00:55.453Z,0
2016-11-29T05:02:04.663Z,0
2016-11-29T05:03:13.889Z,0
2016-11-29T05:04:22.806Z,0
2016-11-29T05:05:31.398Z,0
2016-11-29T05:06:40.295Z,0
2016-11-29T05:07:49.919Z,0
2016-11-29T05:08:58.504Z,0
2016-11-29T05:10:07.093Z,0
2016-11-29T05:11:15.656Z,0
2016-11-29T05:12:24.875Z,0
2016-11-29T05:13:33.549Z,0
2016-11-29T05:14:42.769Z,0
2016-11-29T05:15:51.339Z,0
2016-11-29T05:16:59.915Z,0
2016-11-29T05:18:08.505Z,0
2016-11-29T05:19:17.437Z,0
2016-11-29T05:20:26.326Z,0
2016-11-29T05:21:34.904Z,0
2016-11-29T05:22:43.466Z,0
2016-11-29T05:23:52.032Z,0
2016-11-29T05:25:00.658Z,0
2016-11-29T05:26:09.557Z,0
2016-11-29T05:27:18.456Z,0
2016-11-29T05:28:27.349Z,0
2016-11-29T05:29:36.909Z,0
2016-11-29T05:30:46.156Z,0
2016-11-29T05:31:55.067Z,0
2016-11-29T05:33:03.642Z,0
2016-11-29T05:34:12.852Z,0
2016-11-29T05:35:22.070Z,0
2016-11-29T05:36:31.398Z,0
2016-11-29T05:37:40.299Z,0
2016-11-29T05:38:48.890Z,0
2016-11-29T05:39:57.794Z,0
2016-11-29T05:41:06.361Z,0
2016-11-29T05:42:15.617Z,0
2016-11-29T05:43:24.205Z,0
2016-11-29T05:44:32.801Z,0
2016-11-29T05:45:41.386Z,0
2016-11-29T05:46:50.612Z,0
2016-11-29T05:47:59.238Z,0
2016-11-29T05:49:08.140Z,0
2016-11-29T05:50:17.036Z,0
2016-11-29T05:51:25.945Z,0
2016-11-29T05:52:34.503Z,0
2016-11-29T05:53:44.174Z,0
2016-11-29T05:54:53.054Z,0
2016-11-29T05:56:02.278Z,0
2016-11-29T05:57:11.170Z,0
2016-11-29T05:58:19.743Z,0
2016-11-29T05:59:28.360Z,0
2016-11-29T06:00:36.932Z,0
2016-11-29T06:01:46.483Z,0
2016-11-29T06:02:55.701Z,0
2016-11-29T06:04:04.588Z,0
2016-11-29T06:05:13.508Z,0
2016-11-29T06:06:22.076Z,0
2016-11-29T06:07:30.953Z,0
2016-11-29T06:08:39.532Z,0
2016-11-29T06:09:48.431Z,0
2016-11-29T06:10:57.743Z,0
2016-11-29T06:12:06.329Z,0
2016-11-29T06:13:14.901Z,0
2016-11-29T06:14:23.801Z,0
2016-11-29T06:15:32.689Z,0
2016-11-29T06:16:41.708Z,0
2016-11-29T06:17:50.297Z,0
2016-11-29T06:18:59.532Z,0
2016-11-29T06:20:08.101Z,0
2016-11-29T06:21:17.325Z,0
2016-11-29T06:22:26.018Z,0
2016-11-29T06:23:34.914Z,0
2016-11-29T06:24:43.498Z,0
2016-11-29T06:25:52.375Z,0
2016-11-29T06:27:00.942Z,0
2016-11-29T06:28:10.719Z,0
2016-11-29T06:29:19.637Z,0
2016-11-29T06:30:28.850Z,0
2016-11-29T06:31:38.099Z,0
2016-11-29T06:32:46.997Z,0
2016-11-29T06:33:55.630Z,0
2016-11-29T06:35:04.200Z,0
2016-11-29T06:36:12.780Z,0
2016-11-29T06:37:21.666Z,0
2016-11-29T06:38:30.236Z,0
2016-11-29T06:39:39.206Z,0
2016-11-29T06:40:47.810Z,0
2016-11-29T06:41:56.368Z,0
2016-11-29T06:43:05.273Z,0
2016-11-29T06:44:14.851Z,0
2016-11-29T06:45:24.193Z,0
2016-11-29T06:46:33.122Z,0
2016-11-29T06:47:41.686Z,0
2016-11-29T06:48:51.227Z,0
2016-11-29T06:50:00.145Z,0
2016-11-29T06:51:09.129Z,0
2016-11-29T06:52:17.694Z,0
2016-11-29T06:53:26.590Z,0
2016-11-29T06:54:35.169Z,0
2016-11-29T06:55:44.069Z,0
2016-11-29T06:56:53.056Z,0
2016-11-29T06:58:01.636Z,0
2016-11-29T06:59:11.164Z,0
2016-11-29T07:00:20.066Z,0
2016-11-29T07:01:28.649Z,0
2016-11-29T07:02:37.578Z,5
2016-11-29T07:03:46.160Z,5
2016-11-29T07:04:54.738Z,5
2016-11-29T07:06:03.620Z,5
2016-11-29T07:07:12.818Z,5
2016-11-29T07:08:21.764Z,5
2016-11-29T07:09:31.322Z,10
2016-11-29T07:10:40.220Z,10
2016-11-29T07:11:48.810Z,10
2016-11-29T07:12:58.054Z,10
2016-11-29T07:14:07.052Z,15
2016-11-29T07:15:15.625Z,15
2016-11-29T07:16:25.002Z,15
2016-11-29T07:17:34.793Z,20
2016-11-29T07:18:43.896Z,20
2016-11-29T07:19:52.878Z,20
2016-11-29T07:21:01.784Z,25
2016-11-29T07:22:10.349Z,25
2016-11-29T07:23:18.923Z,30
2016-11-29T07:24:27.502Z,30
2016-11-29T07:25:36.435Z,30
2016-11-29T07:26:45.345Z,35
2016-11-29T07:27:53.953Z,35
2016-11-29T07:29:02.525Z,40
2016-11-29T07:30:11.424Z,40
2016-11-29T07:31:20.349Z,45
2016-11-29T07:32:29.235Z,45
2016-11-29T07:33:38.119Z,50
2016-11-29T07:34:47.021Z,50
2016-11-29T07:35:55.610Z,55
2016-11-29T07:37:04.610Z,55
2016-11-29T07:38:13.510Z,60
2016-11-29T07:39:22.136Z,60
2016-11-29T07:40:31.038Z,65
2016-11-29T07:41:40.579Z,70
2016-11-29T07:42:49.843Z,70
2016-11-29T07:43:58.406Z,75
2016-11-29T07:45:06.998Z,75
2016-11-29T07:46:15.882Z,80
2016-11-29T07:47:24.454Z,80
2016-11-29T07:48:33.784Z,85
2016-11-29T07:49:42.681Z,85
2016-11-29T07:50:51.897Z,90
2016-11-29T07:52:01.125Z,90
2016-11-29T07:53:09.711Z,95
2016-11-29T07:54:18.652Z,95
2016-11-29T07:55:27.243Z,100
2016-11-29T07:56:35.813Z,100
2016-11-29T07:57:44.705Z,105
2016-11-29T07:58:53.610Z,105
2016-11-29T08:00:02.240Z,110
2016-11-29T08:01:11.127Z,110
2016-11-29T08:02:20.048Z,115
2016-11-29T08:03:29.285Z,115
2016-11-29T08:04:37.851Z,115
2016-11-29T08:05:46.784Z,120
2016-11-29T08:06:55.352Z,120
2016-11-29T08:08:04.244Z,125
2016-11-29T08:09:12.817Z,125
2016-11-29T08:10:21.387Z,130
2016-11-29T08:11:30.015Z,130
2016-11-29T08:12:38.917Z,135
2016-11-29T08:13:48.454Z,135
2016-11-29T08:14:57.354Z,135
2016-11-29T08:16:05.932Z,140
2016-11-29T08:17:14.843Z,140
2016-11-29T08:18:23.728Z,145
2016-11-29T08:19:32.296Z,145
2016-11-29T08:20:41.182Z,145
2016-11-29T08:21:50.404Z,150
2016-11-29T08:22:59.300Z,150
2016-11-29T08:24:07.888Z,150
2016-11-29T08:25:16.771Z,155
2016-11-29T08:26:25.687Z,155
2016-11-29T08:27:34.923Z,155
2016-11-29T08:28:44.231Z,155
2016-11-29T08:29:53.445Z,160
2016-11-29T08:31:02.365Z,160
2016-11-29T08:32:11.249Z,160
2016-11-29T08:33:20.466Z,165
2016-11-29T08:34:29.090Z,165
2016-11-29T08:35:37.665Z,170
2016-11-29T08:36:46.582Z,170
2016-11-29T08:37:55.173Z,175
2016-11-29T08:39:03.745Z,175
2016-11-29T08:40:12.694Z,175
2016-11-29T08:41:21.912Z,180
2016-11-29T08:42:30.480Z,180
2016-11-29T08:43:39.368Z,180
2016-11-29T08:44:48.286Z,185
2016-11-29T08:45:57.275Z,185
2016-11-29T08:47:06.169Z,190
2016-11-29T08:48:15.118Z,190
2016-11-29T08:49:23.734Z,195
2016-11-29T08:50:32.958Z,195
2016-11-29T08:51:41.637Z,200
2016-11-29T08:52:50.216Z,200
2016-11-29T08:53:58.808Z,205
2016-11-29T08:55:07.393Z,205
2016-11-29T08:56:16.602Z,205
2016-11-29T08:57:25.230Z,210
2016-11-29T08:58:33.807Z,210
2016-11-29T08:59:42.714Z,210
2016-11-29T09:00:51.621Z,215
2016-11-29T09:02:00.192Z,215
2016-11-29T09:03:09.821Z,215
2016-11-29T09:04:19.694Z,215
2016-11-29T09:05:28.584Z,215
2016-11-29T09:06:37.801Z,220
2016-11-29T09:07:46.384Z,220
2016-11-29T09:08:55.051Z,220
2016-11-29T09:10:03.663Z,220
2016-11-29T09:11:12.238Z,220
2016-11-29T09:12:20.814Z,220
2016-11-29T09:13:29.699Z,220
2016-11-29T09:14:38.381Z,220
2016-11-29T09:15:47.262Z,220
2016-11-29T09:16:56.514Z,220
2016-11-29T09:18:05.430Z,220
2016-11-29T09:19:14.329Z,220
2016-11-29T09:20:23.209Z,220
2016-11-29T09:21:31.804Z,220
2016-11-29T09:22:40.694Z,220
2016-11-29T09:23:49.268Z,225
2016-11-29T09:24:58.158Z,225
2016-11-29T09:26:07.201Z,225
2016-11-29T09:27:17.108Z,225
2016-11-29T09:28:25.996Z,225
2016-11-29T09:29:34.907Z,230
2016-11-29T09:30:44.137Z,230
2016-11-29T09:31:53.441Z,230
2016-11-29T09:33:02.016Z,230
2016-11-29T09:34:10.917Z,230
2016-11-29T09:35:19.815Z,230
2016-11-29T09:36:28.739Z,230
2016-11-29T09:37:38.312Z,235
2016-11-29T09:38:47.218Z,235
2016-11-29T09:39:56.112Z,240
2016-11-29T09:41:04.706Z,235
2016-11-29T09:42:13.604Z,235
2016-11-29T09:43:22.949Z,235
2016-11-29T09:44:31.841Z,235
2016-11-29T09:45:40.399Z,235
2016-11-29T09:46:48.987Z,240
2016-11-29T09:47:58.217Z,240
2016-11-29T09:49:07.169Z,240
2016-11-29T09:50:15.766Z,240
2016-11-29T09:51:24.365Z,240
2016-11-29T09:52:32.937Z,245
2016-11-29T09:53:41.522Z,240
2016-11-29T09:54:50.830Z,245
2016-11-29T09:56:00.052Z,245
2016-11-29T09:57:09.266Z,245
2016-11-29T09:58:18.188Z,245
2016-11-29T09:59:27.068Z,245
2016-11-29T10:00:36.130Z,250
2016-11-29T10:01:45.355Z,245
2016-11-29T10:02:53.925Z,245
2016-11-29T10:04:02.822Z,250
2016-11-29T10:05:11.401Z,250
2016-11-29T10:06:20.331Z,250
2016-11-29T10:07:29.237Z,250
2016-11-29T10:08:38.445Z,250
2016-11-29T10:09:47.325Z,255
2016-11-29T10:10:55.910Z,260
2016-11-29T10:12:04.534Z,255
2016-11-29T10:13:13.129Z,255
2016-11-29T10:14:21.707Z,255
2016-11-29T10:15:30.613Z,255
2016-11-29T10:16:39.516Z,255
2016-11-29T10:17:48.543Z,260
2016-11-29T10:18:57.452Z,260
2016-11-29T10:20:06.681Z,260
2016-11-29T10:21:15.263Z,260
2016-11-29T10:22:23.836Z,260
2016-11-29T10:23:32.470Z,260
2016-11-29T10:24:41.363Z,260
2016-11-29T10:25:49.941Z,260
2016-11-29T10:26:59.157Z,260
2016-11-29T10:28:07.731Z,260
2016-11-29T10:29:16.686Z,260
2016-11-29T10:30:25.264Z,260
2016-11-29T10:31:33.847Z,260
2016-11-29T10:32:42.748Z,260
2016-11-29T10:33:51.645Z,265
2016-11-29T10:35:00.515Z,265
2016-11-29T10:36:09.430Z,265
2016-11-29T10:37:18.351Z,265
2016-11-29T10:38:27.239Z,265
2016-11-29T10:39:35.807Z,265
2016-11-29T10:40:45.053Z,265
2016-11-29T10:41:53.958Z,265
2016-11-29T10:43:03.485Z,265
2016-11-29T10:44:12.067Z,265
2016-11-29T10:45:21.289Z,265
2016-11-29T10:46:29.901Z,265
2016-11-29T10:47:38.796Z,265
2016-11-29T10:48:47.371Z,265
2016-11-29T10:49:56.273Z,265
2016-11-29T10:51:05.169Z,265
2016-11-29T10:52:13.798Z,265
2016-11-29T10:53:23.019Z,270
2016-11-29T10:54:32.258Z,270
2016-11-29T10:55:41.478Z,270
2016-11-29T10:56:50.393Z,270
2016-11-29T10:57:59.017Z,270
2016-11-29T10:59:07.587Z,270
2016-11-29T11:00:16.815Z,270
2016-11-29T11:01:25.718Z,270
2016-11-29T11:02:34.639Z,270
2016-11-29T11:03:44.003Z,270
2016-11-29T11:04:52.577Z,270
2016-11-29T11:06:01.794Z,270
2016-11-29T11:07:10.685Z,270
2016-11-29T11:08:19.910Z,270
2016-11-29T11:09:28.849Z,270
2016-11-29T11:10:38.062Z,275
2016-11-29T11:11:46.973Z,270
2016-11-29T11:12:55.571Z,270
2016-11-29T11:14:04.166Z,270
2016-11-29T11:15:12.847Z,265
2016-11-29T11:16:21.746Z,265
2016-11-29T11:17:30.648Z,270
2016-11-29T11:18:39.235Z,270
2016-11-29T11:19:48.141Z,270
2016-11-29T11:20:57.397Z,270
2016-11-29T11:22:05.972Z,270
2016-11-29T11:23:14.561Z,270
2016-11-29T11:24:23.152Z,270
2016-11-29T11:25:31.732Z,270
2016-11-29T11:26:40.976Z,270
2016-11-29T11:27:50.219Z,275
2016-11-29T11:28:59.775Z,275
2016-11-29T11:30:08.675Z,275
2016-11-29T11:31:17.586Z,275
2016-11-29T11:32:26.532Z,275
2016-11-29T11:33:35.100Z,275
2016-11-29T11:34:43.997Z,275
2016-11-29T11:35:52.895Z,275
2016-11-29T11:37:01.471Z,275
2016-11-29T11:38:10.387Z,270
2016-11-29T11:39:18.954Z,270
2016-11-29T11:40:27.542Z,270
2016-11-29T11:41:36.132Z,270
2016-11-29T11:42:45.016Z,270
2016-11-29T11:43:54.593Z,270
2016-11-29T11:45:03.165Z,270
2016-11-29T11:46:12.090Z,270
2016-11-29T11:47:20.673Z,270
2016-11-29T11:48:29.243Z,270
2016-11-29T11:49:38.503Z,270
2016-11-29T11:50:47.405Z,270
2016-11-29T11:51:55.990Z,270
2016-11-29T11:53:04.577Z,270
2016-11-29T11:54:13.824Z,270
2016-11-29T11:55:22.804Z,270
2016-11-29T11:56:31.716Z,270
2016-11-29T11:57:40.619Z,270
2016-11-29T11:58:49.525Z,270
2016-11-29T11:59:58.421Z,270
2016-11-29T12:01:07.342Z,270
2016-11-29T12:02:16.565Z,270
2016-11-29T12:03:25.800Z,270
2016-11-29T12:04:34.706Z,270
2016-11-29T12:05:44.583Z,270
2016-11-29T12:06:53.527Z,280
2016-11-29T12:08:02.437Z,270
2016-11-29T12:09:11.053Z,270
2016-11-29T12:10:19.935Z,270
2016-11-29T12:11:28.828Z,270
2016-11-29T12:12:38.510Z,270
2016-11-29T12:13:47.396Z,270
2016-11-29T12:14:56.730Z,270
2016-11-29T12:16:05.313Z,270
2016-11-29T12:17:13.898Z,270
2016-11-29T12:18:22.913Z,270
2016-11-29T12:19:31.804Z,270
2016-11-29T12:20:40.377Z,270
2016-11-29T12:21:49.254Z,270
2016-11-29T12:22:57.841Z,270
2016-11-29T12:24:07.098Z,270
2016-11-29T12:25:15.669Z,270
2016-11-29T12:26:24.253Z,270
2016-11-29T12:27:33.175Z,270
2016-11-29T12:28:41.741Z,270
2016-11-29T12:29:50.375Z,270
2016-11-29T12:30:59.268Z,270
2016-11-29T12:32:08.169Z,270
2016-11-29T12:33:17.061Z,270
2016-11-29T12:34:25.959Z,270
2016-11-29T12:35:34.961Z,270
2016-11-29T12:36:43.541Z,270
2016-11-29T12:37:52.460Z,270
2016-11-29T12:39:01.387Z,270
2016-11-29T12:40:10.281Z,270
2016-11-29T12:41:19.176Z,270
2016-11-29T12:42:28.414Z,270
2016-11-29T12:43:37.335Z,270
2016-11-29T12:44:45.923Z,270
2016-11-29T12:45:54.496Z,265
2016-11-29T12:47:03.519Z,265
2016-11-29T12:48:12.739Z,265
2016-11-29T12:49:21.973Z,265
2016-11-29T12:50:30.557Z,265
2016-11-29T12:51:39.129Z,265
2016-11-29T12:52:48.414Z,265
2016-11-29T12:53:57.317Z,265
2016-11-29T12:55:05.903Z,265
2016-11-29T12:56:14.808Z,265
2016-11-29T12:57:23.707Z,265
2016-11-29T12:58:32.718Z,265
2016-11-29T12:59:41.631Z,265
2016-11-29T13:00:50.231Z,265
2016-11-29T13:01:58.823Z,265
2016-11-29T13:03:07.728Z,265
2016-11-29T13:04:16.687Z,260
2016-11-29T13:05:25.275Z,260
2016-11-29T13:06:33.846Z,260
2016-11-29T13:07:42.423Z,260
2016-11-29T13:08:51.330Z,260
2016-11-29T13:10:00.216Z,260
2016-11-29T13:11:09.111Z,260
2016-11-29T13:12:17.684Z,260
2016-11-29T13:13:26.574Z,260
2016-11-29T13:14:35.154Z,260
2016-11-29T13:15:44.700Z,260
2016-11-29T13:16:53.625Z,255
2016-11-29T13:18:02.532Z,255
2016-11-29T13:19:11.451Z,255
2016-11-29T13:20:20.678Z,255
2016-11-29T13:21:29.613Z,255
2016-11-29T13:22:38.523Z,250
2016-11-29T13:23:47.758Z,250
2016-11-29T13:24:56.660Z,250
2016-11-29T13:26:05.575Z,250
2016-11-29T13:27:14.821Z,250
2016-11-29T13:28:24.124Z,245
2016-11-29T13:29:33.046Z,245
2016-11-29T13:30:41.954Z,245
2016-11-29T13:31:50.879Z,240
2016-11-29T13:32:59.515Z,240
2016-11-29T13:34:08.105Z,240
2016-11-29T13:35:17.022Z,240
2016-11-29T13:36:26.259Z,240
2016-11-29T13:37:34.864Z,240
2016-11-29T13:38:43.485Z,235
2016-11-29T13:39:52.089Z,235
2016-11-29T13:41:00.998Z,230
2016-11-29T13:42:09.907Z,230
2016-11-29T13:43:18.496Z,230
2016-11-29T13:44:28.842Z,225
2016-11-29T13:45:37.777Z,225
2016-11-29T13:46:46.707Z,225
2016-11-29T13:47:55.615Z,220
2016-11-29T13:49:04.219Z,220
2016-11-29T13:50:13.840Z,215
2016-11-29T13:51:22.450Z,215
2016-11-29T13:52:31.546Z,215
2016-11-29T13:53:40.128Z,210
2016-11-29T13:54:48.749Z,210
2016-11-29T13:55:57.674Z,205
2016-11-29T13:57:06.886Z,205
2016-11-29T13:58:15.798Z,200
2016-11-29T13:59:24.377Z,200
2016-11-29T14:00:32.940Z,200
2016-11-29T14:01:42.211Z,195
2016-11-29T14:02:51.128Z,195
2016-11-29T14:03:59.711Z,190
2016-11-29T14:05:08.618Z,190
2016-11-29T14:06:17.204Z,185
2016-11-29T14:07:26.413Z,185
2016-11-29T14:08:35.011Z,185
2016-11-29T14:09:43.592Z,180
2016-11-29T14:10:52.207Z,180
2016-11-29T14:12:00.786Z,175
2016-11-29T14:13:09.830Z,175
2016-11-29T14:14:18.430Z,170
2016-11-29T14:15:27.339Z,170
2016-11-29T14:16:36.559Z,165
2016-11-29T14:17:45.151Z,165
2016-11-29T14:18:53.826Z,160
2016-11-29T14:20:02.406Z,155
2016-11-29T14:21:11.626Z,155
2016-11-29T14:22:20.206Z,150
2016-11-29T14:23:29.747Z,150
2016-11-29T14:24:38.632Z,145
2016-11-29T14:25:47.230Z,145
2016-11-29T14:26:57.093Z,140
2016-11-29T14:28:05.692Z,135
2016-11-29T14:29:15.244Z,135
2016-11-29T14:30:23.879Z,130
2016-11-29T14:31:32.784Z,130
2016-11-29T14:32:41.377Z,125
2016-11-29T14:33:49.952Z,125
2016-11-29T14:34:58.519Z,120
2016-11-29T14:36:07.472Z,115
2016-11-29T14:37:16.697Z,115
2016-11-29T14:38:25.598Z,110
2016-11-29T14:39:34.196Z,110
2016-11-29T14:40:43.121Z,105
2016-11-29T14:41:51.809Z,100
2016-11-29T14:43:00.397Z,100
2016-11-29T14:44:08.999Z,95
2016-11-29T14:45:17.891Z,90
2016-11-29T14:46:26.480Z,90
2016-11-29T14:47:35.111Z,85
2016-11-29T14:48:44.019Z,85
2016-11-29T14:49:52.941Z,80
2016-11-29T14:51:01.830Z,75
2016-11-29T14:52:10.730Z,75
2016-11-29T14:53:20.049Z,70
2016-11-29T14:54:28.945Z,65
2016-11-29T14:55:38.156Z,65
2016-11-29T14:56:47.380Z,60
2016-11-29T14:57:56.612Z,60
2016-11-29T14:59:06.172Z,55
2016-11-29T15:00:15.058Z,55
2016-11-29T15:01:23.653Z,50
2016-11-29T15:02:32.556Z,45
2016-11-29T15:03:41.476Z,45
2016-11-29T15:04:51.369Z,40
2016-11-29T15:06:00.587Z,40
2016-11-29T15:07:09.488Z,35
2016-11-29T15:08:18.700Z,35
2016-11-29T15:09:27.934Z,30
2016-11-29T15:10:37.181Z,30
2016-11-29T15:11:45.752Z,25
2016-11-29T15:12:54.972Z,25
2016-11-29T15:14:03.543Z,25
2016-11-29T15:15:12.117Z,20
2016-11-29T15:16:21.420Z,20
2016-11-29T15:17:30.007Z,15
2016-11-29T15:18:38.589Z,15
2016-11-29T15:19:47.489Z,15
2016-11-29T15:20:56.396Z,10
2016-11-29T15:22:05.343Z,10
2016-11-29T15:23:14.562Z,10
2016-11-29T15:24:24.103Z,10
2016-11-29T15:25:32.681Z,5
2016-11-29T15:26:41.576Z,5
2016-11-29T15:27:50.264Z,5
2016-11-29T15:28:59.152Z,5
2016-11-29T15:30:07.744Z,5
2016-11-29T15:31:16.314Z,5
2016-11-29T15:32:25.214Z,0
2016-11-29T15:33:34.467Z,0
2016-11-29T15:34:43.042Z,0
2016-11-29T15:35:51.931Z,0
2016-11-29T15:37:00.826Z,0
2016-11-29T15:38:09.730Z,0
2016-11-29T15:39:19.396Z,0
2016-11-29T15:40:28.622Z,0
2016-11-29T15:41:37.535Z,0
2016-11-29T15:42:46.112Z,0
2016-11-29T15:43:55.008Z,0
2016-11-29T15:45:03.940Z,0
2016-11-29T15:46:12.840Z,0
2016-11-29T15:47:21.420Z,0
2016-11-29T15:48:29.999Z,0
2016-11-29T15:49:38.581Z,0
2016-11-29T15:50:47.862Z,0
2016-11-29T15:51:56.752Z,0
2016-11-29T15:53:05.329Z,0
2016-11-29T15:54:14.557Z,0
2016-11-29T15:55:23.454Z,0
2016-11-29T15:56:32.695Z,0
2016-11-29T15:57:41.271Z,0
2016-11-29T15:58:50.787Z,0
2016-11-29T15:59:59.996Z,0
2016-11-29T16:01:08.580Z,0
2016-11-29T16:02:17.506Z,0
2016-11-29T16:03:26.398Z,0
2016-11-29T16:04:35.290Z,0
2016-11-29T16:05:43.868Z,0
2016-11-29T16:06:53.098Z,0
2016-11-29T16:08:01.763Z,0
2016-11-29T16:09:10.878Z,0
2016-11-29T16:10:20.602Z,0
2016-11-29T16:11:30.040Z,0
2016-11-29T16:12:39.312Z,0
2016-11-29T16:13:48.231Z,0
2016-11-29T16:14:57.125Z,0
2016-11-29T16:16:06.026Z,0
2016-11-29T16:17:14.918Z,0
2016-11-29T16:18:23.821Z,0
2016-11-29T16:19:32.754Z,0
2016-11-29T16:20:41.326Z,0
2016-11-29T16:21:49.924Z,0
2016-11-29T16:22:58.803Z,0
2016-11-29T16:24:07.724Z,0
2016-11-29T16:25:16.722Z,0